sensor_id;sensor_type;location;lat;lon;timestamp;temperature;humidity
11536;DHT22;5824;49.336;8.652;2023-07-09T00:01:51;22.80;1.00
11536;DHT22;5824;49.336;8.652;2023-07-09T00:04:17;22.80;1.00
11536;DHT22;5824;49.336;8.652;2023-07-09T00:06:44;22.80;1.00
11536;DHT22;5824;49.336;8.652;2023-07-09T00:09:17;22.70;1.00
11536;DHT22;5824;49.336;8.652;2023-07-09T00:11:44;22.70;1.00
11536;DHT22;5824;49.336;8.652;2023-07-09T00:14:11;22.70;1.00
11536;DHT22;5824;49.336;8.652;2023-07-09T00:16:38;22.70;1.00
11536;DHT22;5824;49.336;8.652;2023-07-09T00:19:05;25.70;1.00
11536;DHT22;5824;49.336;8.652;2023-07-09T00:21:36;22.70;1.00
11536;DHT22;5824;49.336;8.652;2023-07-09T00:24:02;22.70;1.00
11536;DHT22;5824;49.336;8.652;2023-07-09T00:26:32;22.70;1.00
11536;DHT22;5824;49.336;8.652;2023-07-09T00:28:59;22.70;1.00
11536;DHT22;5824;49.336;8.652;2023-07-09T00:31:25;22.60;1.00
11536;DHT22;5824;49.336;8.652;2023-07-09T00:33:51;22.60;1.00
11536;DHT22;5824;49.336;8.652;2023-07-09T00:36:28;22.60;1.00
11536;DHT22;5824;49.336;8.652;2023-07-09T00:38:56;22.60;1.00
11536;DHT22;5824;49.336;8.652;2023-07-09T00:41:26;22.60;1.00
11536;DHT22;5824;49.336;8.652;2023-07-09T00:43:53;22.50;1.00
11536;DHT22;5824;49.336;8.652;2023-07-09T00:48:46;23.50;1.00
11536;DHT22;5824;49.336;8.652;2023-07-09T00:51:15;22.50;1.00
11536;DHT22;5824;49.336;8.652;2023-07-09T00:53:43;22.50;1.00
11536;DHT22;5824;49.336;8.652;2023-07-09T00:56:16;22.50;1.00
11536;DHT22;5824;49.336;8.652;2023-07-09T01:01:15;22.50;1.00
11536;DHT22;5824;49.336;8.652;2023-07-09T01:03:52;22.50;1.00
11536;DHT22;5824;49.336;8.652;2023-07-09T01:06:25;22.50;1.00
11536;DHT22;5824;49.336;8.652;2023-07-09T01:08:55;22.40;1.00
11536;DHT22;5824;49.336;8.652;2023-07-09T01:11:22;22.40;1.00
11536;DHT22;5824;49.336;8.652;2023-07-09T01:13:52;22.40;1.00
11536;DHT22;5824;49.336;8.652;2023-07-09T01:16:20;22.30;1.00
11536;DHT22;5824;49.336;8.652;2023-07-09T01:18:49;22.20;1.00
11536;DHT22;5824;49.336;8.652;2023-07-09T01:21:15;22.20;1.00
11536;DHT22;5824;49.336;8.652;2023-07-09T01:23:42;22.10;1.00
11536;DHT22;5824;49.336;8.652;2023-07-09T01:26:12;22.10;1.00
11536;DHT22;5824;49.336;8.652;2023-07-09T01:28:38;22.10;1.00
11536;DHT22;5824;49.336;8.652;2023-07-09T01:31:07;22.00;1.00
11536;DHT22;5824;49.336;8.652;2023-07-09T01:33:33;22.00;1.00
11536;DHT22;5824;49.336;8.652;2023-07-09T01:35:59;22.00;1.00
11536;DHT22;5824;49.336;8.652;2023-07-09T01:38:28;21.90;1.00
11536;DHT22;5824;49.336;8.652;2023-07-09T01:40:56;21.90;1.00
11536;DHT22;5824;49.336;8.652;2023-07-09T01:43:23;21.90;1.00
11536;DHT22;5824;49.336;8.652;2023-07-09T01:45:50;21.80;1.00
11536;DHT22;5824;49.336;8.652;2023-07-09T01:48:17;21.80;1.00
11536;DHT22;5824;49.336;8.652;2023-07-09T01:50:46;21.70;1.00
11536;DHT22;5824;49.336;8.652;2023-07-09T01:53:15;21.70;1.00
11536;DHT22;5824;49.336;8.652;2023-07-09T01:55:41;21.70;1.00
11536;DHT22;5824;49.336;8.652;2023-07-09T01:58:07;21.70;1.00
11536;DHT22;5824;49.336;8.652;2023-07-09T02:00:34;21.70;1.00
11536;DHT22;5824;49.336;8.652;2023-07-09T02:03:03;21.70;1.00
11536;DHT22;5824;49.336;8.652;2023-07-09T02:05:31;21.80;1.00
11536;DHT22;5824;49.336;8.652;2023-07-09T02:07:58;21.80;1.00
11536;DHT22;5824;49.336;8.652;2023-07-09T02:10:23;21.70;1.00
11536;DHT22;5824;49.336;8.652;2023-07-09T02:12:49;21.70;1.00
11536;DHT22;5824;49.336;8.652;2023-07-09T02:15:15;21.60;1.00
11536;DHT22;5824;49.336;8.652;2023-07-09T02:17:41;21.50;1.00
11536;DHT22;5824;49.336;8.652;2023-07-09T02:20:08;21.50;1.00
11536;DHT22;5824;49.336;8.652;2023-07-09T02:22:34;21.50;1.00
11536;DHT22;5824;49.336;8.652;2023-07-09T02:25:00;21.40;1.00
11536;DHT22;5824;49.336;8.652;2023-07-09T02:27:26;21.40;1.00
11536;DHT22;5824;49.336;8.652;2023-07-09T02:29:53;21.40;1.00
11536;DHT22;5824;49.336;8.652;2023-07-09T02:32:22;21.40;1.00
11536;DHT22;5824;49.336;8.652;2023-07-09T02:34:49;21.30;1.00
11536;DHT22;5824;49.336;8.652;2023-07-09T02:37:22;21.20;1.00
11536;DHT22;5824;49.336;8.652;2023-07-09T02:39:48;21.20;1.00
11536;DHT22;5824;49.336;8.652;2023-07-09T02:42:16;21.20;1.00
11536;DHT22;5824;49.336;8.652;2023-07-09T02:44:42;21.10;1.00
11536;DHT22;5824;49.336;8.652;2023-07-09T02:47:09;21.00;1.00
11536;DHT22;5824;49.336;8.652;2023-07-09T02:49:35;21.00;1.00
11536;DHT22;5824;49.336;8.652;2023-07-09T02:52:00;21.00;1.00
11536;DHT22;5824;49.336;8.652;2023-07-09T02:54:26;20.90;1.00
11536;DHT22;5824;49.336;8.652;2023-07-09T02:56:52;20.80;1.00
11536;DHT22;5824;49.336;8.652;2023-07-09T02:59:18;20.70;1.00
11536;DHT22;5824;49.336;8.652;2023-07-09T03:01:43;20.70;1.00
11536;DHT22;5824;49.336;8.652;2023-07-09T03:04:09;20.60;1.00
11536;DHT22;5824;49.336;8.652;2023-07-09T03:06:36;20.60;1.00
11536;DHT22;5824;49.336;8.652;2023-07-09T03:09:03;20.60;1.00
11536;DHT22;5824;49.336;8.652;2023-07-09T03:11:31;20.60;1.00
11536;DHT22;5824;49.336;8.652;2023-07-09T03:13:58;20.70;1.00
11536;DHT22;5824;49.336;8.652;2023-07-09T03:16:26;20.60;1.00
11536;DHT22;5824;49.336;8.652;2023-07-09T03:18:52;20.60;1.00
11536;DHT22;5824;49.336;8.652;2023-07-09T03:21:17;20.50;1.00
11536;DHT22;5824;49.336;8.652;2023-07-09T03:23:43;20.40;1.00
11536;DHT22;5824;49.336;8.652;2023-07-09T03:26:08;20.40;1.00
11536;DHT22;5824;49.336;8.652;2023-07-09T03:28:34;20.50;1.00
11536;DHT22;5824;49.336;8.652;2023-07-09T03:31:00;20.60;1.00
11536;DHT22;5824;49.336;8.652;2023-07-09T03:33:25;20.50;1.00
11536;DHT22;5824;49.336;8.652;2023-07-09T03:35:52;20.50;1.00
11536;DHT22;5824;49.336;8.652;2023-07-09T03:38:18;20.50;1.00
11536;DHT22;5824;49.336;8.652;2023-07-09T03:40:44;20.50;1.00
11536;DHT22;5824;49.336;8.652;2023-07-09T03:43:10;20.40;1.00
11536;DHT22;5824;49.336;8.652;2023-07-09T03:45:37;20.40;1.00
11536;DHT22;5824;49.336;8.652;2023-07-09T03:48:04;20.40;1.00
11536;DHT22;5824;49.336;8.652;2023-07-09T03:50:30;20.40;1.00
11536;DHT22;5824;49.336;8.652;2023-07-09T03:52:55;20.40;1.00
11536;DHT22;5824;49.336;8.652;2023-07-09T03:55:21;20.40;1.00
11536;DHT22;5824;49.336;8.652;2023-07-09T03:57:46;20.40;1.00
11536;DHT22;5824;49.336;8.652;2023-07-09T04:00:13;20.50;1.00
11536;DHT22;5824;49.336;8.652;2023-07-09T04:02:40;20.50;1.00
11536;DHT22;5824;49.336;8.652;2023-07-09T04:05:07;20.50;1.00
11536;DHT22;5824;49.336;8.652;2023-07-09T04:07:34;20.50;1.00
11536;DHT22;5824;49.336;8.652;2023-07-09T04:10:00;20.50;1.00
11536;DHT22;5824;49.336;8.652;2023-07-09T04:12:25;20.60;1.00
11536;DHT22;5824;49.336;8.652;2023-07-09T04:14:51;20.70;1.00
11536;DHT22;5824;49.336;8.652;2023-07-09T04:17:16;20.80;1.00
11536;DHT22;5824;49.336;8.652;2023-07-09T04:19:42;20.90;1.00
11536;DHT22;5824;49.336;8.652;2023-07-09T04:22:10;20.90;1.00
11536;DHT22;5824;49.336;8.652;2023-07-09T04:24:36;20.90;1.00
11536;DHT22;5824;49.336;8.652;2023-07-09T04:27:01;20.90;1.00
11536;DHT22;5824;49.336;8.652;2023-07-09T04:29:29;21.00;1.00
11536;DHT22;5824;49.336;8.652;2023-07-09T04:31:55;21.10;1.00
11536;DHT22;5824;49.336;8.652;2023-07-09T04:34:21;21.10;1.00
11536;DHT22;5824;49.336;8.652;2023-07-09T04:36:46;21.30;1.00
11536;DHT22;5824;49.336;8.652;2023-07-09T04:39:12;21.30;1.00
11536;DHT22;5824;49.336;8.652;2023-07-09T04:41:37;21.30;1.00
11536;DHT22;5824;49.336;8.652;2023-07-09T04:44:03;21.20;1.00
11536;DHT22;5824;49.336;8.652;2023-07-09T04:46:28;21.20;1.00
11536;DHT22;5824;49.336;8.652;2023-07-09T04:48:54;21.20;1.00
11536;DHT22;5824;49.336;8.652;2023-07-09T04:51:21;21.20;1.00
11536;DHT22;5824;49.336;8.652;2023-07-09T04:53:47;21.20;1.00
11536;DHT22;5824;49.336;8.652;2023-07-09T04:56:12;21.20;1.00
11536;DHT22;5824;49.336;8.652;2023-07-09T04:58:38;21.40;1.00
11536;DHT22;5824;49.336;8.652;2023-07-09T05:01:03;21.40;1.00
11536;DHT22;5824;49.336;8.652;2023-07-09T05:03:29;21.40;1.00
11536;DHT22;5824;49.336;8.652;2023-07-09T05:05:54;21.50;1.00
11536;DHT22;5824;49.336;8.652;2023-07-09T05:08:20;21.70;1.00
11536;DHT22;5824;49.336;8.652;2023-07-09T05:10:51;21.60;1.00
11536;DHT22;5824;49.336;8.652;2023-07-09T05:13:18;21.70;1.00
11536;DHT22;5824;49.336;8.652;2023-07-09T05:15:46;21.80;1.00
11536;DHT22;5824;49.336;8.652;2023-07-09T05:18:15;22.00;1.00
11536;DHT22;5824;49.336;8.652;2023-07-09T05:20:41;22.10;1.00
11536;DHT22;5824;49.336;8.652;2023-07-09T05:23:08;22.30;1.00
11536;DHT22;5824;49.336;8.652;2023-07-09T05:25:34;22.30;1.00
11536;DHT22;5824;49.336;8.652;2023-07-09T05:27:59;22.40;1.00
11536;DHT22;5824;49.336;8.652;2023-07-09T05:30:25;22.60;1.00
11536;DHT22;5824;49.336;8.652;2023-07-09T05:32:51;22.70;1.00
11536;DHT22;5824;49.336;8.652;2023-07-09T05:35:19;22.80;1.00
11536;DHT22;5824;49.336;8.652;2023-07-09T05:37:44;22.90;1.00
11536;DHT22;5824;49.336;8.652;2023-07-09T05:40:10;23.00;1.00
11536;DHT22;5824;49.336;8.652;2023-07-09T05:42:36;23.10;1.00
11536;DHT22;5824;49.336;8.652;2023-07-09T05:45:01;23.20;1.00
11536;DHT22;5824;49.336;8.652;2023-07-09T05:47:27;23.30;1.00
11536;DHT22;5824;49.336;8.652;2023-07-09T05:49:52;23.40;1.00
11536;DHT22;5824;49.336;8.652;2023-07-09T05:52:20;23.60;1.00
11536;DHT22;5824;49.336;8.652;2023-07-09T05:54:45;23.70;1.00
11536;DHT22;5824;49.336;8.652;2023-07-09T05:57:12;23.90;1.00
11536;DHT22;5824;49.336;8.652;2023-07-09T05:59:37;24.00;1.00
11536;DHT22;5824;49.336;8.652;2023-07-09T06:02:03;24.10;1.00
11536;DHT22;5824;49.336;8.652;2023-07-09T06:04:29;24.20;1.00
11536;DHT22;5824;49.336;8.652;2023-07-09T06:06:56;24.40;1.00
11536;DHT22;5824;49.336;8.652;2023-07-09T06:09:22;24.40;1.00
11536;DHT22;5824;49.336;8.652;2023-07-09T06:11:48;24.70;1.00
11536;DHT22;5824;49.336;8.652;2023-07-09T06:14:13;24.80;1.00
11536;DHT22;5824;49.336;8.652;2023-07-09T06:16:39;24.90;1.00
11536;DHT22;5824;49.336;8.652;2023-07-09T06:19:04;25.00;1.00
11536;DHT22;5824;49.336;8.652;2023-07-09T06:21:29;25.20;1.00
11536;DHT22;5824;49.336;8.652;2023-07-09T06:23:55;25.30;1.00
11536;DHT22;5824;49.336;8.652;2023-07-09T06:26:21;25.40;1.00
11536;DHT22;5824;49.336;8.652;2023-07-09T06:28:46;25.40;1.00
11536;DHT22;5824;49.336;8.652;2023-07-09T06:31:12;25.60;1.00
11536;DHT22;5824;49.336;8.652;2023-07-09T06:33:37;25.70;1.00
11536;DHT22;5824;49.336;8.652;2023-07-09T06:36:03;25.80;1.00
11536;DHT22;5824;49.336;8.652;2023-07-09T06:38:30;25.90;1.00
11536;DHT22;5824;49.336;8.652;2023-07-09T06:40:56;26.00;1.00
11536;DHT22;5824;49.336;8.652;2023-07-09T06:43:22;26.20;1.00
11536;DHT22;5824;49.336;8.652;2023-07-09T06:45:49;26.30;1.00
11536;DHT22;5824;49.336;8.652;2023-07-09T06:48:15;26.40;1.00
11536;DHT22;5824;49.336;8.652;2023-07-09T06:50:41;26.50;1.00
11536;DHT22;5824;49.336;8.652;2023-07-09T06:53:06;26.60;1.00
11536;DHT22;5824;49.336;8.652;2023-07-09T06:55:32;26.80;1.00
11536;DHT22;5824;49.336;8.652;2023-07-09T06:57:57;26.70;1.00
11536;DHT22;5824;49.336;8.652;2023-07-09T07:00:23;26.80;1.00
11536;DHT22;5824;49.336;8.652;2023-07-09T07:02:48;27.00;1.00
11536;DHT22;5824;49.336;8.652;2023-07-09T07:05:14;27.10;1.00
11536;DHT22;5824;49.336;8.652;2023-07-09T07:07:39;27.30;1.00
11536;DHT22;5824;49.336;8.652;2023-07-09T07:10:05;27.50;1.00
11536;DHT22;5824;49.336;8.652;2023-07-09T07:12:41;27.60;1.00
11536;DHT22;5824;49.336;8.652;2023-07-09T07:15:08;27.80;1.00
11536;DHT22;5824;49.336;8.652;2023-07-09T07:17:33;27.90;1.00
11536;DHT22;5824;49.336;8.652;2023-07-09T07:19:59;28.10;1.00
11536;DHT22;5824;49.336;8.652;2023-07-09T07:22:24;28.30;1.00
11536;DHT22;5824;49.336;8.652;2023-07-09T07:24:50;28.50;1.00
11536;DHT22;5824;49.336;8.652;2023-07-09T07:27:15;28.50;1.00
11536;DHT22;5824;49.336;8.652;2023-07-09T07:29:41;28.60;1.00
11536;DHT22;5824;49.336;8.652;2023-07-09T07:32:07;28.80;1.00
11536;DHT22;5824;49.336;8.652;2023-07-09T07:34:32;29.10;1.00
11536;DHT22;5824;49.336;8.652;2023-07-09T07:36:58;29.30;1.00
11536;DHT22;5824;49.336;8.652;2023-07-09T07:39:24;29.40;1.00
11536;DHT22;5824;49.336;8.652;2023-07-09T07:41:49;29.80;1.00
11536;DHT22;5824;49.336;8.652;2023-07-09T07:44:16;29.80;1.00
11536;DHT22;5824;49.336;8.652;2023-07-09T07:46:42;30.00;1.00
11536;DHT22;5824;49.336;8.652;2023-07-09T07:49:07;30.30;1.00
11536;DHT22;5824;49.336;8.652;2023-07-09T07:51:33;30.60;1.00
11536;DHT22;5824;49.336;8.652;2023-07-09T07:53:59;30.80;1.00
11536;DHT22;5824;49.336;8.652;2023-07-09T07:56:25;31.10;1.00
11536;DHT22;5824;49.336;8.652;2023-07-09T07:58:51;31.20;1.00
11536;DHT22;5824;49.336;8.652;2023-07-09T08:01:16;31.30;1.00
11536;DHT22;5824;49.336;8.652;2023-07-09T08:03:42;31.50;1.00
11536;DHT22;5824;49.336;8.652;2023-07-09T08:06:07;31.60;1.00
11536;DHT22;5824;49.336;8.652;2023-07-09T08:08:33;31.30;1.00
11536;DHT22;5824;49.336;8.652;2023-07-09T08:11:07;31.60;1.00
11536;DHT22;5824;49.336;8.652;2023-07-09T08:13:36;32.00;1.00
11536;DHT22;5824;49.336;8.652;2023-07-09T08:16:03;32.30;1.00
11536;DHT22;5824;49.336;8.652;2023-07-09T08:18:28;32.70;1.00
11536;DHT22;5824;49.336;8.652;2023-07-09T08:20:54;32.70;1.00
11536;DHT22;5824;49.336;8.652;2023-07-09T08:23:20;33.00;1.00
11536;DHT22;5824;49.336;8.652;2023-07-09T08:25:53;33.10;1.00
11536;DHT22;5824;49.336;8.652;2023-07-09T08:28:18;33.50;1.00
11536;DHT22;5824;49.336;8.652;2023-07-09T08:30:44;33.40;1.00
11536;DHT22;5824;49.336;8.652;2023-07-09T08:33:10;33.40;1.00
11536;DHT22;5824;49.336;8.652;2023-07-09T08:35:35;33.60;1.00
11536;DHT22;5824;49.336;8.652;2023-07-09T08:38:01;33.40;1.00
11536;DHT22;5824;49.336;8.652;2023-07-09T08:40:27;33.70;1.00
11536;DHT22;5824;49.336;8.652;2023-07-09T08:42:55;33.90;1.00
11536;DHT22;5824;49.336;8.652;2023-07-09T08:48:04;34.50;1.00
11536;DHT22;5824;49.336;8.652;2023-07-09T08:50:41;34.50;1.00
11536;DHT22;5824;49.336;8.652;2023-07-09T08:53:27;34.60;1.00
11536;DHT22;5824;49.336;8.652;2023-07-09T08:55:52;34.40;1.00
11536;DHT22;5824;49.336;8.652;2023-07-09T08:58:30;34.50;1.00
11536;DHT22;5824;49.336;8.652;2023-07-09T09:01:05;34.40;1.00
11536;DHT22;5824;49.336;8.652;2023-07-09T09:03:47;34.70;1.00
11536;DHT22;5824;49.336;8.652;2023-07-09T09:06:17;35.00;1.00
11536;DHT22;5824;49.336;8.652;2023-07-09T09:09:03;35.50;1.00
11536;DHT22;5824;49.336;8.652;2023-07-09T09:14:02;37.30;1.00
11536;DHT22;5824;49.336;8.652;2023-07-09T09:16:35;38.10;1.00
11536;DHT22;5824;49.336;8.652;2023-07-09T09:19:15;38.80;1.00
11536;DHT22;5824;49.336;8.652;2023-07-09T09:21:43;40.10;1.00
11536;DHT22;5824;49.336;8.652;2023-07-09T09:24:27;40.10;1.00
11536;DHT22;5824;49.336;8.652;2023-07-09T09:26:57;40.80;1.00
11536;DHT22;5824;49.336;8.652;2023-07-09T09:29:24;41.70;1.00
11536;DHT22;5824;49.336;8.652;2023-07-09T09:31:53;42.80;1.00
11536;DHT22;5824;49.336;8.652;2023-07-09T09:34:28;42.90;1.00
11536;DHT22;5824;49.336;8.652;2023-07-09T09:36:55;43.30;1.00
11536;DHT22;5824;49.336;8.652;2023-07-09T09:39:24;43.50;1.00
11536;DHT22;5824;49.336;8.652;2023-07-09T09:41:53;43.30;1.00
11536;DHT22;5824;49.336;8.652;2023-07-09T09:44:28;43.40;1.00
11536;DHT22;5824;49.336;8.652;2023-07-09T09:46:58;43.70;1.00
11536;DHT22;5824;49.336;8.652;2023-07-09T09:49:24;44.10;1.00
11536;DHT22;5824;49.336;8.652;2023-07-09T09:51:49;44.90;1.00
11536;DHT22;5824;49.336;8.652;2023-07-09T09:54:23;45.00;1.00
11536;DHT22;5824;49.336;8.652;2023-07-09T09:56:50;45.60;1.00
11536;DHT22;5824;49.336;8.652;2023-07-09T09:59:27;45.30;1.00
11536;DHT22;5824;49.336;8.652;2023-07-09T10:01:59;44.30;1.00
11536;DHT22;5824;49.336;8.652;2023-07-09T10:04:26;44.40;1.00
11536;DHT22;5824;49.336;8.652;2023-07-09T10:06:55;44.20;1.00
11536;DHT22;5824;49.336;8.652;2023-07-09T10:12:04;45.40;1.00
11536;DHT22;5824;49.336;8.652;2023-07-09T10:14:41;45.60;1.00
11536;DHT22;5824;49.336;8.652;2023-07-09T10:17:20;45.60;1.00
11536;DHT22;5824;49.336;8.652;2023-07-09T10:22:35;46.00;1.00
11536;DHT22;5824;49.336;8.652;2023-07-09T10:25:34;46.10;1.00
11536;DHT22;5824;49.336;8.652;2023-07-09T10:28:17;46.30;1.00
11536;DHT22;5824;49.336;8.652;2023-07-09T10:31:17;46.90;1.00
11536;DHT22;5824;49.336;8.652;2023-07-09T10:33:53;46.00;1.00
11536;DHT22;5824;49.336;8.652;2023-07-09T10:39:16;45.90;1.00
11536;DHT22;5824;49.336;8.652;2023-07-09T10:41:43;46.70;1.00
11536;DHT22;5824;49.336;8.652;2023-07-09T10:46:40;47.50;1.00
11536;DHT22;5824;49.336;8.652;2023-07-09T10:49:11;48.10;1.00
11536;DHT22;5824;49.336;8.652;2023-07-09T10:51:40;48.10;1.00
11536;DHT22;5824;49.336;8.652;2023-07-09T10:54:15;48.30;1.00
11536;DHT22;5824;49.336;8.652;2023-07-09T10:56:44;48.30;1.00
11536;DHT22;5824;49.336;8.652;2023-07-09T10:59:39;47.90;1.00
11536;DHT22;5824;49.336;8.652;2023-07-09T11:02:25;47.60;1.00
11536;DHT22;5824;49.336;8.652;2023-07-09T11:04:56;47.20;1.00
11536;DHT22;5824;49.336;8.652;2023-07-09T11:07:54;46.50;1.00
11536;DHT22;5824;49.336;8.652;2023-07-09T11:10:32;47.00;1.00
11536;DHT22;5824;49.336;8.652;2023-07-09T11:13:07;47.50;1.00
11536;DHT22;5824;49.336;8.652;2023-07-09T11:15:37;47.90;1.00
11536;DHT22;5824;49.336;8.652;2023-07-09T11:18:06;47.90;1.00
11536;DHT22;5824;49.336;8.652;2023-07-09T11:20:41;48.70;1.00
11536;DHT22;5824;49.336;8.652;2023-07-09T11:23:18;49.50;1.00
11536;DHT22;5824;49.336;8.652;2023-07-09T11:25:46;49.00;1.00
11536;DHT22;5824;49.336;8.652;2023-07-09T11:28:13;49.20;1.00
11536;DHT22;5824;49.336;8.652;2023-07-09T11:30:51;49.10;1.00
11536;DHT22;5824;49.336;8.652;2023-07-09T11:33:19;48.70;1.00
11536;DHT22;5824;49.336;8.652;2023-07-09T11:35:48;48.80;1.00
11536;DHT22;5824;49.336;8.652;2023-07-09T11:38:20;49.20;1.00
11536;DHT22;5824;49.336;8.652;2023-07-09T11:44:05;48.70;1.00
11536;DHT22;5824;49.336;8.652;2023-07-09T11:46:45;48.70;1.00
11536;DHT22;5824;49.336;8.652;2023-07-09T11:49:13;48.70;1.00
11536;DHT22;5824;49.336;8.652;2023-07-09T11:51:45;49.10;1.00
11536;DHT22;5824;49.336;8.652;2023-07-09T11:54:13;48.20;1.00
11536;DHT22;5824;49.336;8.652;2023-07-09T11:56:39;47.30;1.00
11536;DHT22;5824;49.336;8.652;2023-07-09T11:59:05;47.40;1.00
11536;DHT22;5824;49.336;8.652;2023-07-09T12:01:42;47.90;1.00
11536;DHT22;5824;49.336;8.652;2023-07-09T12:04:13;48.10;1.00
11536;DHT22;5824;49.336;8.652;2023-07-09T12:06:40;49.20;1.00
11536;DHT22;5824;49.336;8.652;2023-07-09T12:09:08;50.30;1.00
11536;DHT22;5824;49.336;8.652;2023-07-09T12:11:34;50.50;1.00
11536;DHT22;5824;49.336;8.652;2023-07-09T12:14:20;51.00;1.00
11536;DHT22;5824;49.336;8.652;2023-07-09T12:16:48;51.70;1.00
11536;DHT22;5824;49.336;8.652;2023-07-09T12:19:17;51.80;1.00
11536;DHT22;5824;49.336;8.652;2023-07-09T12:21:46;51.80;1.00
11536;DHT22;5824;49.336;8.652;2023-07-09T12:24:18;51.00;1.00
11536;DHT22;5824;49.336;8.652;2023-07-09T12:26:48;50.30;1.00
11536;DHT22;5824;49.336;8.652;2023-07-09T12:29:14;50.20;1.00
11536;DHT22;5824;49.336;8.652;2023-07-09T12:31:40;50.20;1.00
11536;DHT22;5824;49.336;8.652;2023-07-09T12:34:10;50.20;1.00
11536;DHT22;5824;49.336;8.652;2023-07-09T12:36:38;50.60;1.00
11536;DHT22;5824;49.336;8.652;2023-07-09T12:39:04;50.50;1.00
11536;DHT22;5824;49.336;8.652;2023-07-09T12:41:39;49.90;1.00
11536;DHT22;5824;49.336;8.652;2023-07-09T12:44:06;50.10;1.00
11536;DHT22;5824;49.336;8.652;2023-07-09T12:46:36;49.70;1.00
11536;DHT22;5824;49.336;8.652;2023-07-09T12:49:05;49.00;1.00
11536;DHT22;5824;49.336;8.652;2023-07-09T12:51:31;48.50;1.00
11536;DHT22;5824;49.336;8.652;2023-07-09T12:54:11;48.70;1.00
11536;DHT22;5824;49.336;8.652;2023-07-09T12:56:38;48.70;1.00
11536;DHT22;5824;49.336;8.652;2023-07-09T12:59:23;48.80;1.00
11536;DHT22;5824;49.336;8.652;2023-07-09T13:02:01;48.80;1.00
11536;DHT22;5824;49.336;8.652;2023-07-09T13:04:31;48.70;1.00
11536;DHT22;5824;49.336;8.652;2023-07-09T13:06:57;48.70;1.00
11536;DHT22;5824;49.336;8.652;2023-07-09T13:09:26;48.70;1.00
11536;DHT22;5824;49.336;8.652;2023-07-09T13:11:52;47.80;1.00
11536;DHT22;5824;49.336;8.652;2023-07-09T13:14:25;47.30;1.00
11536;DHT22;5824;49.336;8.652;2023-07-09T13:16:51;47.60;1.00
11536;DHT22;5824;49.336;8.652;2023-07-09T13:19:17;48.10;1.00
11536;DHT22;5824;49.336;8.652;2023-07-09T13:21:44;47.50;1.00
11536;DHT22;5824;49.336;8.652;2023-07-09T13:24:19;47.40;1.00
11536;DHT22;5824;49.336;8.652;2023-07-09T13:26:46;48.20;1.00
11536;DHT22;5824;49.336;8.652;2023-07-09T13:29:14;48.40;1.00
11536;DHT22;5824;49.336;8.652;2023-07-09T13:31:41;48.10;1.00
11536;DHT22;5824;49.336;8.652;2023-07-09T13:34:18;47.40;1.00
11536;DHT22;5824;49.336;8.652;2023-07-09T13:36:44;46.80;1.00
11536;DHT22;5824;49.336;8.652;2023-07-09T13:39:12;46.90;1.00
11536;DHT22;5824;49.336;8.652;2023-07-09T13:41:45;46.70;1.00
11536;DHT22;5824;49.336;8.652;2023-07-09T13:44:14;47.00;1.00
11536;DHT22;5824;49.336;8.652;2023-07-09T13:46:40;46.40;1.00
11536;DHT22;5824;49.336;8.652;2023-07-09T13:49:14;46.40;1.00
11536;DHT22;5824;49.336;8.652;2023-07-09T13:51:41;46.40;1.00
11536;DHT22;5824;49.336;8.652;2023-07-09T13:54:19;46.20;1.00
11536;DHT22;5824;49.336;8.652;2023-07-09T13:56:46;46.30;1.00
11536;DHT22;5824;49.336;8.652;2023-07-09T13:59:18;46.70;1.00
11536;DHT22;5824;49.336;8.652;2023-07-09T14:01:44;47.00;1.00
11536;DHT22;5824;49.336;8.652;2023-07-09T14:04:15;47.20;1.00
11536;DHT22;5824;49.336;8.652;2023-07-09T14:06:41;47.50;1.00
11536;DHT22;5824;49.336;8.652;2023-07-09T14:09:12;47.90;1.00
11536;DHT22;5824;49.336;8.652;2023-07-09T14:14:23;48.30;1.00
11536;DHT22;5824;49.336;8.652;2023-07-09T14:16:50;48.20;1.00
11536;DHT22;5824;49.336;8.652;2023-07-09T14:19:20;48.30;1.00
11536;DHT22;5824;49.336;8.652;2023-07-09T14:21:47;48.40;1.00
11536;DHT22;5824;49.336;8.652;2023-07-09T14:24:24;48.20;1.00
11536;DHT22;5824;49.336;8.652;2023-07-09T14:26:55;48.70;1.00
11536;DHT22;5824;49.336;8.652;2023-07-09T14:29:22;48.00;1.00
11536;DHT22;5824;49.336;8.652;2023-07-09T14:31:48;46.80;1.00
11536;DHT22;5824;49.336;8.652;2023-07-09T14:36:39;45.20;1.00
11536;DHT22;5824;49.336;8.652;2023-07-09T14:39:09;45.10;1.00
11536;DHT22;5824;49.336;8.652;2023-07-09T14:41:34;44.30;1.00
11536;DHT22;5824;49.336;8.652;2023-07-09T14:44:00;44.20;1.00
11536;DHT22;5824;49.336;8.652;2023-07-09T14:46:25;44.60;1.00
11536;DHT22;5824;49.336;8.652;2023-07-09T14:48:51;45.20;1.00
11536;DHT22;5824;49.336;8.652;2023-07-09T14:51:17;45.30;1.00
11536;DHT22;5824;49.336;8.652;2023-07-09T14:53:43;45.10;1.00
11536;DHT22;5824;49.336;8.652;2023-07-09T14:56:11;44.80;1.00
11536;DHT22;5824;49.336;8.652;2023-07-09T14:58:38;44.30;1.00
11536;DHT22;5824;49.336;8.652;2023-07-09T15:01:03;44.60;1.00
11536;DHT22;5824;49.336;8.652;2023-07-09T15:03:29;44.80;1.00
11536;DHT22;5824;49.336;8.652;2023-07-09T15:05:55;44.40;1.00
11536;DHT22;5824;49.336;8.652;2023-07-09T15:08:23;44.20;1.00
11536;DHT22;5824;49.336;8.652;2023-07-09T15:10:51;44.30;1.00
11536;DHT22;5824;49.336;8.652;2023-07-09T15:13:29;44.40;1.00
11536;DHT22;5824;49.336;8.652;2023-07-09T15:15:55;44.60;1.00
11536;DHT22;5824;49.336;8.652;2023-07-09T15:18:21;44.30;1.00
11536;DHT22;5824;49.336;8.652;2023-07-09T15:20:51;43.80;1.00
11536;DHT22;5824;49.336;8.652;2023-07-09T15:23:18;43.20;1.00
11536;DHT22;5824;49.336;8.652;2023-07-09T15:25:47;42.60;1.00
11536;DHT22;5824;49.336;8.652;2023-07-09T15:28:12;41.80;1.00
11536;DHT22;5824;49.336;8.652;2023-07-09T15:30:38;41.30;1.00
11536;DHT22;5824;49.336;8.652;2023-07-09T15:33:04;41.00;1.00
11536;DHT22;5824;49.336;8.652;2023-07-09T15:35:34;40.80;1.00
11536;DHT22;5824;49.336;8.652;2023-07-09T15:38:05;40.80;1.00
11536;DHT22;5824;49.336;8.652;2023-07-09T15:40:37;40.80;1.00
11536;DHT22;5824;49.336;8.652;2023-07-09T15:43:05;40.70;1.00
11536;DHT22;5824;49.336;8.652;2023-07-09T15:45:36;40.60;1.00
11536;DHT22;5824;49.336;8.652;2023-07-09T15:48:04;40.80;1.00
11536;DHT22;5824;49.336;8.652;2023-07-09T15:50:30;40.70;1.00
11536;DHT22;5824;49.336;8.652;2023-07-09T15:52:56;40.70;1.00
11536;DHT22;5824;49.336;8.652;2023-07-09T15:55:24;41.10;1.00
11536;DHT22;5824;49.336;8.652;2023-07-09T15:57:52;41.50;1.00
11536;DHT22;5824;49.336;8.652;2023-07-09T16:00:24;41.60;1.00
11536;DHT22;5824;49.336;8.652;2023-07-09T16:02:51;41.50;1.00
11536;DHT22;5824;49.336;8.652;2023-07-09T16:05:21;41.10;1.00
11536;DHT22;5824;49.336;8.652;2023-07-09T16:07:49;40.50;1.00
11536;DHT22;5824;49.336;8.652;2023-07-09T16:10:15;40.20;1.00
11536;DHT22;5824;49.336;8.652;2023-07-09T16:12:41;39.80;1.00
11536;DHT22;5824;49.336;8.652;2023-07-09T16:15:11;39.30;1.00
11536;DHT22;5824;49.336;8.652;2023-07-09T16:17:37;39.10;1.00
11536;DHT22;5824;49.336;8.652;2023-07-09T16:20:03;39.30;1.00
11536;DHT22;5824;49.336;8.652;2023-07-09T16:22:31;38.80;1.00
11536;DHT22;5824;49.336;8.652;2023-07-09T16:24:56;38.70;1.00
11536;DHT22;5824;49.336;8.652;2023-07-09T16:27:22;38.60;1.00
11536;DHT22;5824;49.336;8.652;2023-07-09T16:29:49;38.50;1.00
11536;DHT22;5824;49.336;8.652;2023-07-09T16:32:15;38.50;1.00
11536;DHT22;5824;49.336;8.652;2023-07-09T16:34:41;38.50;1.00
11536;DHT22;5824;49.336;8.652;2023-07-09T16:37:17;38.50;1.00
11536;DHT22;5824;49.336;8.652;2023-07-09T16:39:45;38.50;1.00